Time;durP1;ratioP1;P1;durP2;ratioP2;P2;SDS_P1;SDS_P2;PMS_P1;PMS_P2;Temp;Humidity;BMP_temperature;BMP_pressure;BME280_temperature;BME280_humidity;BME280_pressure;Samples;Min_cycle;Max_cycle;Signal;HPM_P1;HPM_P2
2022/11/04 00:01:44;;;;;;;5.73;5.03;;;10.50;99.90;;;;;;5096214;28;20191;-65
2022/11/04 00:04:11;;;;;;;5.83;4.70;;;10.40;99.90;;;;;;5096061;28;20165;-64
2022/11/04 00:06:38;;;;;;;4.97;4.40;;;10.30;99.90;;;;;;5095919;28;20200;-65
2022/11/04 00:09:05;;;;;;;5.40;4.80;;;10.20;99.90;;;;;;5095885;28;20200;-65
2022/11/04 00:14:15;;;;;;;6.17;4.00;;;10.10;99.90;;;;;;5080147;28;20192;-65
2022/11/04 00:19:26;;;;;;;4.73;4.10;;;9.90;99.90;;;;;;5055560;28;20174;-65
2022/11/04 00:30:08;;;;;;;4.80;4.30;;;9.70;99.90;;;;;;5055354;28;20236;-65
2022/11/04 00:35:19;;;;;;;4.60;4.17;;;9.60;99.90;;;;;;5055337;28;20562;-65
2022/11/04 00:37:46;;;;;;;4.30;3.90;;;9.60;99.90;;;;;;5054022;28;20183;-65
2022/11/04 00:40:14;;;;;;;6.57;4.03;;;9.50;99.90;;;;;;5055543;28;20190;-65
2022/11/04 00:42:43;;;;;;;8.10;3.97;;;9.50;99.90;;;;;;5078884;28;20184;-65
2022/11/04 00:45:09;;;;;;;5.47;4.13;;;9.50;99.90;;;;;;5095547;28;20189;-65
2022/11/04 00:47:34;;;;;;;4.63;4.23;;;9.50;99.90;;;;;;5095389;28;20221;-65
2022/11/04 00:50:00;;;;;;;5.07;4.40;;;9.50;99.90;;;;;;5095228;28;20197;-65
2022/11/04 00:52:26;;;;;;;4.87;4.30;;;9.50;99.90;;;;;;5095321;28;20266;-65
2022/11/04 00:54:52;;;;;;;4.90;4.40;;;9.50;99.90;;;;;;5093899;28;20585;-65
2022/11/04 00:57:17;;;;;;;6.97;4.70;;;9.50;99.90;;;;;;5093754;28;20559;-65
2022/11/04 00:59:44;;;;;;;5.43;4.27;;;9.40;99.90;;;;;;5095047;28;20625;-65
2022/11/04 01:02:10;;;;;;;4.80;4.30;;;9.40;99.90;;;;;;5095289;28;20626;-65
2022/11/04 01:04:36;;;;;;;8.37;4.03;;;9.40;99.90;;;;;;5094917;28;20185;-65
2022/11/04 01:07:03;;;;;;;5.27;4.77;;;9.30;99.90;;;;;;5094979;28;20207;-65
2022/11/04 01:09:28;;;;;;;4.73;4.30;;;9.30;99.90;;;;;;5095411;28;20197;-65
2022/11/04 01:11:54;;;;;;;4.30;3.97;;;9.40;99.90;;;;;;5093536;28;20242;-65
2022/11/04 01:14:20;;;;;;;4.30;3.90;;;9.30;99.90;;;;;;5095100;28;20170;-65
2022/11/04 01:16:49;;;;;;;4.23;3.90;;;9.30;99.90;;;;;;5094710;28;20727;-65
2022/11/04 01:19:16;;;;;;;4.40;4.00;;;9.30;99.90;;;;;;5094565;28;20180;-65
2022/11/04 01:21:42;;;;;;;4.40;4.00;;;9.30;99.90;;;;;;5094680;28;20183;-65
2022/11/04 01:24:08;;;;;;;7.70;4.50;;;9.20;99.90;;;;;;5094213;28;20185;-65
2022/11/04 01:26:35;;;;;;;7.23;4.83;;;9.20;99.90;;;;;;5094755;28;20204;-65
2022/11/04 01:29:01;;;;;;;4.83;4.20;;;9.20;99.90;;;;;;5094461;28;20203;-65
2022/11/04 01:31:29;;;;;;;5.50;4.87;;;9.20;99.90;;;;;;5095073;28;20177;-65
2022/11/04 01:33:56;;;;;;;4.60;4.20;;;9.20;99.90;;;;;;5094303;28;20303;-65
2022/11/04 01:36:24;;;;;;;5.87;4.67;;;9.20;99.90;;;;;;5094313;28;20222;-65
2022/11/04 01:38:50;;;;;;;5.33;4.23;;;9.30;99.90;;;;;;5094353;28;20183;-65
2022/11/04 01:41:23;;;;;;;6.20;4.47;;;9.30;99.90;;;;;;5094628;28;20603;-66
2022/11/04 01:43:50;;;;;;;5.37;4.70;;;9.30;99.90;;;;;;5094281;28;20149;-65
2022/11/04 01:46:57;;;;;;;5.03;4.57;;;9.30;99.90;;;;;;5094106;28;20212;-65
2022/11/04 01:49:36;;;;;;;5.67;4.67;;;9.30;99.90;;;;;;5091429;28;20663;-65
2022/11/04 01:52:06;;;;;;;6.40;5.17;;;9.30;99.90;;;;;;5094478;28;20160;-65
2022/11/04 01:54:34;;;;;;;6.13;5.13;;;9.30;99.90;;;;;;5094329;28;20244;-65
2022/11/04 01:57:04;;;;;;;6.07;5.23;;;9.30;99.90;;;;;;5094284;28;20189;-65
2022/11/04 01:59:35;;;;;;;6.87;5.30;;;9.30;99.90;;;;;;5094265;28;20180;-65
2022/11/04 02:02:02;;;;;;;6.80;5.37;;;9.30;99.90;;;;;;5093994;28;20170;-65
2022/11/04 02:04:29;;;;;;;7.40;5.53;;;9.30;99.90;;;;;;5093763;28;20201;-65
2022/11/04 02:07:08;;;;;;;6.63;5.93;;;9.30;99.90;;;;;;5092508;28;20236;-65
2022/11/04 02:09:35;;;;;;;10.60;6.43;;;9.30;99.90;;;;;;5094005;28;20242;-65
2022/11/04 02:14:48;;;;;;;8.37;6.23;;;9.30;99.90;;;;;;5094000;28;20168;-65
2022/11/04 02:17:17;;;;;;;9.87;7.07;;;9.30;99.90;;;;;;5093633;28;20197;-65
2022/11/04 02:19:52;;;;;;;11.83;7.10;;;9.30;99.90;;;;;;5093559;28;20185;-65
2022/11/04 02:23:01;;;;;;;9.50;6.57;;;9.40;99.90;;;;;;5093920;28;20165;-65
2022/11/04 02:25:58;;;;;;;8.77;6.67;;;9.40;99.90;;;;;;5091987;28;20216;-65
2022/11/04 02:29:01;;;;;;;8.17;7.10;;;9.50;99.90;;;;;;5092276;28;20177;-65
2022/11/04 02:31:36;;;;;;;8.30;6.73;;;9.50;99.90;;;;;;5093788;28;20164;-65
2022/11/04 02:34:04;;;;;;;7.27;6.53;;;9.50;99.90;;;;;;5093363;28;20184;-65
2022/11/04 02:36:46;;;;;;;8.67;6.67;;;9.50;99.90;;;;;;5093363;28;20192;-65
2022/11/04 02:39:37;;;;;;;10.60;7.40;;;9.50;99.90;;;;;;5094071;28;20193;-65
2022/11/04 02:42:16;;;;;;;9.63;7.00;;;9.50;99.90;;;;;;5093704;28;20212;-65
2022/11/04 02:44:56;;;;;;;9.57;6.70;;;9.50;99.90;;;;;;5093328;28;20660;-65
2022/11/04 02:47:27;;;;;;;8.20;6.80;;;9.50;99.90;;;;;;5093272;28;20295;-67
2022/11/04 02:50:09;;;;;;;9.23;7.37;;;9.40;99.90;;;;;;5093349;28;20271;-65
2022/11/04 02:52:55;;;;;;;7.50;6.70;;;9.40;99.90;;;;;;5092088;28;20184;-65
2022/11/04 02:55:43;;;;;;;7.10;6.40;;;9.40;99.90;;;;;;5093591;28;20181;-65
2022/11/04 02:58:14;;;;;;;8.50;6.97;;;9.30;99.90;;;;;;5093624;28;20691;-65
2022/11/04 03:00:42;;;;;;;10.30;7.27;;;9.30;99.90;;;;;;5093378;28;20185;-65
2022/11/04 03:03:25;;;;;;;10.20;6.57;;;9.20;99.90;;;;;;5093261;28;20583;-68
2022/11/04 03:05:55;;;;;;;9.13;6.60;;;9.20;99.90;;;;;;5093546;28;20197;-68
2022/11/04 03:08:32;;;;;;;8.37;6.10;;;9.10;99.90;;;;;;5094131;28;20212;-66
2022/11/04 03:11:13;;;;;;;12.03;6.83;;;9.10;99.90;;;;;;5094147;28;20185;-68
2022/11/04 03:14:09;;;;;;;6.93;6.23;;;9.10;99.90;;;;;;5053319;28;20162;-68
2022/11/04 03:16:51;;;;;;;8.67;6.63;;;9.00;99.90;;;;;;5052933;28;20265;-68
2022/11/04 03:19:30;;;;;;;8.33;6.27;;;9.00;99.90;;;;;;5052920;28;20163;-69
2022/11/04 03:22:08;;;;;;;7.83;6.63;;;9.00;99.90;;;;;;5053021;28;20182;-68
2022/11/04 03:24:34;;;;;;;6.27;5.67;;;9.00;99.90;;;;;;5053464;28;20162;-68
2022/11/04 03:27:12;;;;;;;7.17;5.53;;;9.00;99.90;;;;;;5053050;28;20202;-68
2022/11/04 03:29:56;;;;;;;7.93;5.80;;;9.10;99.90;;;;;;5053198;28;20192;-68
2022/11/04 03:32:34;;;;;;;7.73;5.90;;;9.00;99.90;;;;;;5051682;28;20169;-68
2022/11/04 03:35:00;;;;;;;9.17;5.90;;;9.10;99.90;;;;;;5053030;28;20177;-67
2022/11/04 03:37:26;;;;;;;11.03;6.47;;;9.10;99.90;;;;;;5052721;28;20179;-68
2022/11/04 03:39:51;;;;;;;13.23;6.20;;;9.10;99.90;;;;;;5052825;28;20670;-68
2022/11/04 03:42:19;;;;;;;8.10;6.07;;;9.10;99.90;;;;;;5070109;28;20189;-68
2022/11/04 03:44:48;;;;;;;9.77;6.37;;;9.10;99.90;;;;;;5091773;28;20204;-68
2022/11/04 03:47:14;;;;;;;7.70;5.70;;;9.10;99.90;;;;;;5092565;28;20272;-68
2022/11/04 03:49:40;;;;;;;13.23;6.00;;;9.10;99.90;;;;;;5096366;28;20334;-68
2022/11/04 03:52:05;;;;;;;11.07;5.90;;;9.10;99.90;;;;;;5096492;28;20586;-68
2022/11/04 03:54:34;;;;;;;15.63;6.30;;;9.10;99.90;;;;;;5095115;28;20181;-68
2022/11/04 03:57:17;;;;;;;8.57;5.97;;;9.10;99.90;;;;;;5095007;28;20277;-68
2022/11/04 04:00:06;;;;;;;10.53;5.83;;;9.00;99.90;;;;;;5096656;28;20169;-68
2022/11/04 04:02:46;;;;;;;9.00;5.53;;;9.00;99.90;;;;;;5096341;28;20177;-67
2022/11/04 04:05:18;;;;;;;9.43;5.50;;;9.00;99.90;;;;;;5096189;28;20218;-68
2022/11/04 04:08:13;;;;;;;8.07;5.50;;;9.00;99.90;;;;;;5096505;28;20175;-68
2022/11/04 04:10:45;;;;;;;9.17;5.37;;;9.00;99.90;;;;;;5086721;28;20216;-68
2022/11/04 04:13:22;;;;;;;6.67;5.30;;;9.00;99.90;;;;;;5094768;28;20268;-68
2022/11/04 04:16:00;;;;;;;7.53;5.03;;;9.00;99.90;;;;;;5096165;28;20193;-68
2022/11/04 04:18:44;;;;;;;6.60;4.93;;;9.00;99.90;;;;;;5095892;28;20173;-68
2022/11/04 04:21:15;;;;;;;8.53;5.00;;;8.90;99.90;;;;;;5097111;28;20577;-68
2022/11/04 04:29:16;;;;;;;5.93;4.30;;;9.00;99.90;;;;;;5095976;28;20232;-68
2022/11/04 04:31:49;;;;;;;12.63;4.80;;;8.90;99.90;;;;;;5095675;28;20184;-68
2022/11/04 04:34:21;;;;;;;10.07;4.13;;;8.90;99.90;;;;;;5095582;28;20660;-68
2022/11/04 04:37:17;;;;;;;8.00;4.63;;;8.90;99.90;;;;;;5095839;28;20238;-68
2022/11/04 04:45:31;;;;;;;12.63;4.27;;;8.70;99.90;;;;;;5095248;28;20211;-68
2022/11/04 04:47:57;;;;;;;11.67;4.33;;;8.70;99.90;;;;;;5095248;28;20201;-68
2022/11/04 04:50:29;;;;;;;9.37;4.23;;;8.70;99.90;;;;;;5095285;28;20300;-68
2022/11/04 04:52:57;;;;;;;13.30;3.90;;;8.70;99.90;;;;;;5095681;28;20585;-68
2022/11/04 04:55:23;;;;;;;8.33;4.07;;;8.60;99.90;;;;;;5095326;28;20185;-68
2022/11/04 04:57:49;;;;;;;8.93;4.50;;;8.60;99.90;;;;;;5095183;28;20187;-68
2022/11/04 05:00:18;;;;;;;13.97;4.50;;;8.60;99.90;;;;;;5094327;28;20642;-68
2022/11/04 05:02:44;;;;;;;7.60;4.20;;;8.60;99.90;;;;;;5095067;28;20332;-68
2022/11/04 05:05:12;;;;;;;9.93;3.83;;;8.60;99.90;;;;;;5095390;28;20177;-68
2022/11/04 05:07:38;;;;;;;7.23;4.43;;;8.60;99.90;;;;;;5093970;28;20196;-68
2022/11/04 05:10:05;;;;;;;10.60;4.17;;;8.50;99.90;;;;;;5093811;28;20574;-68
2022/11/04 05:15:17;;;;;;;4.53;4.07;;;8.50;99.90;;;;;;5095313;28;20621;-68
2022/11/04 05:17:43;;;;;;;7.13;4.10;;;8.50;99.90;;;;;;5093478;28;20204;-68
2022/11/04 05:20:09;;;;;;;11.30;4.30;;;8.40;99.90;;;;;;5094901;28;20181;-68
2022/11/04 05:22:35;;;;;;;10.43;4.30;;;8.40;99.90;;;;;;5094993;28;20626;-68
2022/11/04 05:25:01;;;;;;;6.27;3.90;;;8.40;99.90;;;;;;5094640;28;20180;-68
2022/11/04 05:27:26;;;;;;;9.67;4.37;;;8.40;99.90;;;;;;5094934;28;20255;-65
2022/11/04 05:29:52;;;;;;;8.20;4.00;;;8.40;99.90;;;;;;5093203;28;20611;-65
2022/11/04 05:32:18;;;;;;;5.60;3.90;;;8.40;99.90;;;;;;5093341;28;20184;-65
2022/11/04 05:34:44;;;;;;;6.57;3.83;;;8.30;99.90;;;;;;5094331;28;20169;-65
2022/11/04 05:37:09;;;;;;;7.87;4.60;;;8.30;99.90;;;;;;5094417;28;20193;-65
2022/11/04 05:39:35;;;;;;;10.17;4.37;;;8.30;99.90;;;;;;5093168;28;20230;-65
2022/11/04 05:42:01;;;;;;;6.23;3.90;;;8.20;99.90;;;;;;5094122;28;20699;-65
2022/11/04 05:44:26;;;;;;;5.47;4.17;;;8.20;99.90;;;;;;5094299;28;20192;-65
2022/11/04 05:46:52;;;;;;;8.60;3.77;;;8.20;99.90;;;;;;5094351;28;20242;-65
2022/11/04 05:49:18;;;;;;;8.90;4.03;;;8.20;99.90;;;;;;5094089;28;20194;-65
2022/11/04 05:51:43;;;;;;;10.83;4.20;;;8.20;99.90;;;;;;5094085;28;20180;-65
2022/11/04 05:54:09;;;;;;;8.10;3.80;;;8.20;99.90;;;;;;5094107;28;20173;-65
2022/11/04 05:56:35;;;;;;;6.40;4.00;;;8.20;99.90;;;;;;5094074;28;20188;-65
2022/11/04 05:59:01;;;;;;;10.03;4.40;;;8.10;99.90;;;;;;5094009;28;20172;-65
2022/11/04 06:01:31;;;;;;;5.97;3.67;;;8.10;99.90;;;;;;5093752;28;20172;-65
2022/11/04 06:03:58;;;;;;;7.70;4.17;;;8.10;99.90;;;;;;5094121;28;20158;-65
2022/11/04 06:06:26;;;;;;;8.93;4.13;;;8.20;99.90;;;;;;5094095;28;20185;-65
2022/11/04 06:08:52;;;;;;;11.60;4.27;;;8.10;99.90;;;;;;5093870;28;20166;-65
2022/11/04 06:11:19;;;;;;;9.47;4.40;;;8.20;99.90;;;;;;5092330;28;20217;-65
2022/11/04 06:13:45;;;;;;;8.33;4.07;;;8.10;99.90;;;;;;5093936;28;20173;-65
2022/11/04 06:16:11;;;;;;;7.90;4.50;;;8.10;99.90;;;;;;5093858;28;20220;-65
2022/11/04 06:18:37;;;;;;;7.57;3.90;;;8.20;99.90;;;;;;5094003;28;20165;-65
2022/11/04 06:21:06;;;;;;;5.20;3.70;;;8.20;99.90;;;;;;5093763;28;20667;-65
2022/11/04 06:23:32;;;;;;;5.00;3.57;;;8.20;99.90;;;;;;5093678;28;20173;-65
2022/11/04 06:25:58;;;;;;;6.50;3.80;;;8.30;99.90;;;;;;5094023;28;20541;-65
2022/11/04 06:28:23;;;;;;;7.83;4.13;;;8.30;99.90;;;;;;5093864;28;20168;-65
2022/11/04 06:30:49;;;;;;;4.47;3.80;;;8.40;99.90;;;;;;5094044;28;20283;-65
2022/11/04 06:33:15;;;;;;;7.33;3.60;;;8.40;99.90;;;;;;5092441;28;20219;-65
2022/11/04 06:35:40;;;;;;;8.23;4.40;;;8.50;99.90;;;;;;5092304;28;20189;-65
2022/11/04 06:38:06;;;;;;;9.63;3.73;;;8.50;99.90;;;;;;5093573;28;20193;-65
2022/11/04 06:40:32;;;;;;;11.57;4.20;;;8.60;99.90;;;;;;5093825;28;20177;-65
2022/11/04 06:42:58;;;;;;;8.57;4.40;;;8.60;99.90;;;;;;5093605;28;20176;-65
2022/11/04 06:45:23;;;;;;;6.67;4.70;;;8.60;99.90;;;;;;5093481;28;20209;-65
2022/11/04 06:47:49;;;;;;;5.23;4.30;;;8.60;99.90;;;;;;5093440;28;20173;-65
2022/11/04 06:50:15;;;;;;;9.67;4.17;;;8.60;99.90;;;;;;5093348;28;20204;-65
2022/11/04 06:52:40;;;;;;;8.47;4.30;;;8.60;99.90;;;;;;5093467;28;20180;-65
2022/11/04 06:55:07;;;;;;;6.93;4.07;;;8.60;99.90;;;;;;5093711;28;20252;-65
2022/11/04 06:57:33;;;;;;;7.77;4.53;;;8.60;99.90;;;;;;5093893;28;20169;-65
2022/11/04 06:59:59;;;;;;;5.27;4.20;;;8.60;99.90;;;;;;5093398;28;20168;-65
2022/11/04 07:02:25;;;;;;;8.43;3.90;;;8.70;99.90;;;;;;5093780;28;20224;-65
2022/11/04 07:04:51;;;;;;;7.37;4.40;;;8.60;99.90;;;;;;5093238;28;20638;-65
2022/11/04 07:07:17;;;;;;;9.27;4.70;;;8.60;99.90;;;;;;5091942;28;20193;-65
2022/11/04 07:09:43;;;;;;;6.30;4.20;;;8.60;99.90;;;;;;5093190;28;20228;-65
2022/11/04 07:12:08;;;;;;;5.73;4.23;;;8.60;99.90;;;;;;5093258;28;20177;-65
2022/11/04 07:14:34;;;;;;;11.93;4.67;;;8.70;99.90;;;;;;5093280;28;20553;-65
2022/11/04 07:17:00;;;;;;;6.40;3.80;;;8.70;99.90;;;;;;5093340;28;20185;-65
2022/11/04 07:19:26;;;;;;;13.17;10.43;;;8.70;99.90;;;;;;5093127;28;20638;-65
2022/11/04 07:21:52;;;;;;;11.57;9.60;;;8.70;99.90;;;;;;5093732;28;20180;-65
2022/11/04 07:24:17;;;;;;;28.17;23.33;;;8.70;99.90;;;;;;5097341;28;20180;-65
2022/11/04 07:26:43;;;;;;;8.33;5.83;;;8.70;99.90;;;;;;5097554;28;20666;-65
2022/11/04 07:29:10;;;;;;;9.30;6.93;;;8.80;99.90;;;;;;5096969;28;20246;-65
2022/11/04 07:31:36;;;;;;;11.77;5.63;;;8.90;99.90;;;;;;5095794;28;20652;-65
2022/11/04 07:34:02;;;;;;;9.13;4.43;;;8.90;99.90;;;;;;5096829;28;20195;-65
2022/11/04 07:36:28;;;;;;;10.93;4.57;;;8.90;99.90;;;;;;5097427;28;20197;-65
2022/11/04 07:38:54;;;;;;;11.83;5.83;;;8.90;99.90;;;;;;5097035;28;20180;-65
2022/11/04 07:41:20;;;;;;;9.87;4.43;;;8.90;99.90;;;;;;5097055;28;20173;-66
2022/11/04 07:43:50;;;;;;;7.37;4.10;;;9.00;99.90;;;;;;5097120;28;20173;-65
2022/11/04 07:46:16;;;;;;;5.47;3.80;;;9.10;99.90;;;;;;5096453;28;20223;-65
2022/11/04 07:48:42;;;;;;;6.20;4.13;;;9.10;99.90;;;;;;5096597;28;20170;-65
2022/11/04 07:51:11;;;;;;;6.17;3.73;;;9.20;99.90;;;;;;5096540;28;20201;-65
2022/11/04 07:53:38;;;;;;;8.20;3.87;;;9.20;99.90;;;;;;5096830;28;20536;-65
2022/11/04 07:56:05;;;;;;;8.03;4.20;;;9.20;99.90;;;;;;5096326;28;20567;-65
2022/11/04 07:58:32;;;;;;;8.70;4.17;;;9.30;99.90;;;;;;5096409;28;20166;-65
2022/11/04 08:01:04;;;;;;;7.00;4.63;;;9.30;99.90;;;;;;5096391;28;20294;-65
2022/11/04 08:03:30;;;;;;;10.63;4.30;;;9.40;99.90;;;;;;5096257;28;20227;-65
2022/11/04 08:06:00;;;;;;;10.47;4.00;;;9.40;99.90;;;;;;5096232;28;20677;-65
2022/11/04 08:08:27;;;;;;;7.00;4.47;;;9.30;99.90;;;;;;5096459;28;20643;-65
2022/11/04 08:10:55;;;;;;;4.37;3.50;;;9.40;99.90;;;;;;5096358;28;20230;-65
2022/11/04 08:13:20;;;;;;;6.90;3.53;;;9.50;99.90;;;;;;5096174;28;20181;-65
2022/11/04 08:15:47;;;;;;;6.40;4.00;;;9.50;99.90;;;;;;5096138;28;20282;-65
2022/11/04 08:18:12;;;;;;;5.63;3.80;;;9.70;99.90;;;;;;5095791;28;20241;-65
2022/11/04 08:20:38;;;;;;;7.50;4.23;;;9.80;99.90;;;;;;5095849;28;20205;-65
2022/11/04 08:23:04;;;;;;;15.10;4.53;;;9.90;99.90;;;;;;5096073;28;20641;-65
2022/11/04 08:25:29;;;;;;;7.77;3.70;;;9.90;99.90;;;;;;5096022;28;20197;-65
2022/11/04 08:27:55;;;;;;;5.50;3.70;;;9.90;99.90;;;;;;5095778;28;20177;-65
2022/11/04 08:30:21;;;;;;;6.40;3.43;;;10.00;99.90;;;;;;5095674;28;20210;-65
2022/11/04 08:32:46;;;;;;;8.53;3.87;;;10.10;99.90;;;;;;5095566;28;20222;-65
2022/11/04 08:35:12;;;;;;;5.37;3.10;;;10.20;99.90;;;;;;5095587;28;20173;-65
2022/11/04 08:37:38;;;;;;;3.83;3.53;;;10.20;99.90;;;;;;5096500;28;20157;-65
2022/11/04 08:40:04;;;;;;;5.03;3.47;;;10.30;99.90;;;;;;5095569;28;20180;-65
2022/11/04 08:42:30;;;;;;;5.47;3.40;;;10.30;99.90;;;;;;5095636;28;20186;-65
2022/11/04 08:44:56;;;;;;;6.80;3.60;;;10.50;99.90;;;;;;5095478;28;20242;-65
2022/11/04 08:47:22;;;;;;;8.57;3.50;;;10.50;99.90;;;;;;5095975;28;20197;-65
2022/11/04 08:49:47;;;;;;;8.13;3.87;;;10.60;99.90;;;;;;5093835;28;20209;-65
2022/11/04 08:52:13;;;;;;;4.50;3.67;;;10.60;99.90;;;;;;5095606;28;20169;-65
2022/11/04 08:54:39;;;;;;;6.03;3.30;;;10.70;99.90;;;;;;5094148;28;20169;-65
2022/11/04 08:57:05;;;;;;;6.40;3.30;;;10.70;99.90;;;;;;5095218;28;20195;-65
2022/11/04 08:59:30;;;;;;;5.40;3.30;;;10.80;99.90;;;;;;5094028;28;20634;-65
2022/11/04 09:01:56;;;;;;;9.83;3.30;;;10.90;99.90;;;;;;5095214;28;20173;-65
2022/11/04 09:04:22;;;;;;;6.47;3.33;;;11.10;99.90;;;;;;5095075;28;20199;-65
2022/11/04 09:06:49;;;;;;;7.87;3.50;;;11.30;99.90;;;;;;5095007;28;20287;-65
2022/11/04 09:09:16;;;;;;;7.00;3.57;;;11.50;99.90;;;;;;5094969;28;20193;-65
2022/11/04 09:11:43;;;;;;;7.60;3.50;;;11.60;99.90;;;;;;5094974;28;20181;-65
2022/11/04 09:14:11;;;;;;;4.67;2.83;;;11.70;99.90;;;;;;5093682;28;20177;-65
2022/11/04 09:16:38;;;;;;;8.50;3.27;;;11.90;99.90;;;;;;5093524;28;20200;-65
2022/11/04 09:19:04;;;;;;;8.33;3.50;;;11.90;99.90;;;;;;5094711;28;20195;-65
2022/11/04 09:21:30;;;;;;;7.30;3.63;;;11.90;99.90;;;;;;5095386;28;20169;-64
2022/11/04 09:23:56;;;;;;;8.77;3.40;;;11.90;99.90;;;;;;5094849;28;20169;-65
2022/11/04 09:26:23;;;;;;;7.40;3.33;;;11.90;99.90;;;;;;5094641;28;20272;-65
2022/11/04 09:28:54;;;;;;;13.00;4.23;;;11.90;99.90;;;;;;5095011;28;20257;-65
2022/11/04 09:31:20;;;;;;;4.43;3.20;;;11.80;99.90;;;;;;5094584;28;20649;-65
2022/11/04 09:33:46;;;;;;;5.37;3.40;;;11.90;99.90;;;;;;5094438;28;20588;-65
2022/11/04 09:36:13;;;;;;;8.17;3.90;;;11.80;99.90;;;;;;5094508;28;20211;-65
2022/11/04 09:38:40;;;;;;;5.63;3.30;;;11.80;99.90;;;;;;5094709;28;20170;-64
2022/11/04 09:41:27;;;;;;;7.33;3.70;;;11.80;99.90;;;;;;5093031;28;20169;-65
2022/11/04 09:44:03;;;;;;;11.30;3.73;;;11.80;99.90;;;;;;5094437;28;20180;-64
2022/11/04 09:46:31;;;;;;;12.33;3.30;;;11.70;99.90;;;;;;5092471;28;20684;-64
2022/11/04 09:49:00;;;;;;;7.67;3.53;;;11.60;99.90;;;;;;5094448;28;20201;-64
2022/11/04 09:51:26;;;;;;;7.53;3.27;;;11.70;99.90;;;;;;5094811;28;20188;-65
2022/11/04 09:53:58;;;;;;;6.83;3.80;;;11.80;99.90;;;;;;5094295;28;20292;-64
2022/11/04 09:56:37;;;;;;;11.37;3.93;;;11.80;99.90;;;;;;5094391;28;20661;-64
2022/11/04 09:59:04;;;;;;;5.33;3.40;;;11.60;99.90;;;;;;5092861;28;20664;-64
2022/11/04 10:01:41;;;;;;;6.60;3.23;;;11.60;99.90;;;;;;5094074;28;20189;-65
2022/11/04 10:04:29;;;;;;;13.87;4.13;;;11.70;99.90;;;;;;5094081;28;20214;-64
2022/11/04 10:07:03;;;;;;;7.47;3.37;;;11.80;99.90;;;;;;5092824;28;20205;-65
2022/11/04 10:09:41;;;;;;;7.10;3.53;;;11.90;99.90;;;;;;5093924;28;20564;-64
2022/11/04 10:12:32;;;;;;;6.23;3.63;;;11.90;99.90;;;;;;5093891;28;20184;-65
2022/11/04 10:15:11;;;;;;;11.87;3.57;;;11.80;99.90;;;;;;5093895;28;20177;-65
2022/11/04 10:17:55;;;;;;;6.47;3.50;;;11.90;99.90;;;;;;5093840;28;20157;-65
2022/11/04 10:20:36;;;;;;;5.97;3.47;;;12.10;99.90;;;;;;5093790;28;20276;-65
2022/11/04 10:23:28;;;;;;;10.43;3.57;;;12.20;99.90;;;;;;5094066;28;20164;-65
2022/11/04 10:25:56;;;;;;;7.40;3.40;;;12.30;99.90;;;;;;5094222;28;20213;-65
2022/11/04 10:28:29;;;;;;;8.77;3.40;;;12.20;99.90;;;;;;5093715;28;20173;-65
2022/11/04 10:30:55;;;;;;;8.90;3.30;;;12.20;99.90;;;;;;5093910;28;20185;-65
2022/11/04 10:33:44;;;;;;;6.80;3.30;;;12.40;99.90;;;;;;5093843;28;20169;-65
2022/11/04 10:36:11;;;;;;;6.17;3.30;;;12.50;99.90;;;;;;5093064;28;20696;-65
2022/11/04 10:38:42;;;;;;;8.97;3.50;;;12.60;99.90;;;;;;5093634;28;20653;-68
2022/11/04 10:41:23;;;;;;;7.03;3.20;;;12.60;99.90;;;;;;5093533;28;20161;-65
2022/11/04 10:43:53;;;;;;;8.95;3.30;;;12.70;99.90;;;;;;5092282;28;20179;-65
2022/11/04 10:46:40;;;;;;;5.53;3.13;;;12.80;99.90;;;;;;5093325;28;20283;-65
2022/11/04 10:49:36;;;;;;;12.82;3.40;;;13.00;99.90;;;;;;5093208;28;20191;-65
2022/11/04 10:52:02;;;;;;;7.32;3.38;;;13.20;99.90;;;;;;5093562;28;20206;-65
2022/11/04 10:54:32;;;;;;;7.50;3.55;;;13.20;99.90;;;;;;5093344;28;20173;-65
2022/11/04 10:56:57;;;;;;;7.82;3.10;;;12.90;99.90;;;;;;5094268;28;20657;-65
2022/11/04 10:59:26;;;;;;;12.38;3.53;;;12.80;99.90;;;;;;5097477;28;20233;-65
2022/11/04 11:01:54;;;;;;;9.65;3.25;;;12.70;99.90;;;;;;5097409;28;20165;-65
2022/11/04 11:04:34;;;;;;;7.40;3.28;;;12.60;99.90;;;;;;5097362;28;20664;-65
2022/11/04 11:07:06;;;;;;;6.95;3.67;;;12.70;99.90;;;;;;5097340;28;20241;-65
2022/11/04 11:09:39;;;;;;;7.75;3.60;;;12.60;99.90;;;;;;5097586;28;20185;-64
2022/11/04 11:12:19;;;;;;;8.43;3.22;;;12.60;99.90;;;;;;5097310;28;20314;-65
2022/11/04 11:14:46;;;;;;;6.60;3.25;;;12.70;99.90;;;;;;5097811;28;20150;-65
2022/11/04 11:17:17;;;;;;;6.68;3.28;;;12.80;99.90;;;;;;5097111;28;20238;-65
2022/11/04 11:20:23;;;;;;;8.15;3.50;;;12.80;99.90;;;;;;5096093;28;20587;-65
2022/11/04 11:22:50;;;;;;;4.65;3.30;;;12.70;99.90;;;;;;5096727;28;20661;-65
2022/11/04 11:25:32;;;;;;;6.63;3.40;;;12.70;99.90;;;;;;5097320;28;20169;-65
2022/11/04 11:28:05;;;;;;;9.13;3.50;;;12.60;99.90;;;;;;5097170;28;20162;-65
2022/11/04 11:30:45;;;;;;;8.43;3.92;;;12.50;99.90;;;;;;5096940;28;20200;-65
2022/11/04 11:33:27;;;;;;;8.10;4.05;;;12.40;99.90;;;;;;5097115;28;20549;-66
2022/11/04 11:36:11;;;;;;;12.13;4.30;;;12.40;99.90;;;;;;5097305;28;20553;-65
2022/11/04 11:38:50;;;;;;;10.38;6.20;;;12.30;99.90;;;;;;5095582;28;20697;-65
2022/11/04 11:41:22;;;;;;;9.37;6.10;;;12.20;99.90;;;;;;5096775;28;20169;-66
2022/11/04 11:43:52;;;;;;;7.72;4.15;;;12.20;99.90;;;;;;5096741;28;20154;-65
2022/11/04 11:46:27;;;;;;;10.33;4.27;;;12.20;99.90;;;;;;5096510;28;20213;-65
2022/11/04 11:49:00;;;;;;;4.90;3.50;;;12.20;99.90;;;;;;5095361;28;20660;-65
2022/11/04 11:51:35;;;;;;;4.23;3.67;;;12.20;99.90;;;;;;5096619;28;20561;-65
2022/11/04 11:54:21;;;;;;;8.47;3.70;;;12.20;99.90;;;;;;5096716;28;20240;-65
2022/11/04 11:56:53;;;;;;;9.63;3.70;;;12.20;99.90;;;;;;5096428;28;20189;-65
2022/11/04 11:59:22;;;;;;;8.60;3.67;;;12.10;99.90;;;;;;5095284;28;20258;-65
2022/11/04 12:02:09;;;;;;;7.83;3.70;;;12.20;99.90;;;;;;5096353;28;20176;-65
2022/11/04 12:04:36;;;;;;;6.67;3.67;;;12.20;99.90;;;;;;5096299;28;20160;-65
2022/11/04 12:07:37;;;;;;;6.53;3.60;;;12.20;99.90;;;;;;5094957;28;20557;-65
2022/11/04 12:10:52;;;;;;;7.73;3.37;;;12.30;99.90;;;;;;5096230;28;20207;-65
2022/11/04 12:13:29;;;;;;;9.90;3.67;;;12.40;99.90;;;;;;5094427;28;20185;-65
2022/11/04 12:16:10;;;;;;;3.23;2.80;;;12.30;99.90;;;;;;5096087;28;20559;-65
2022/11/04 12:19:00;;;;;;;5.75;3.13;;;12.20;99.90;;;;;;5096002;28;20157;-65
2022/11/04 12:21:32;;;;;;;5.53;3.25;;;12.30;99.90;;;;;;5096004;28;20619;-65
2022/11/04 12:24:19;;;;;;;6.47;3.27;;;12.30;99.90;;;;;;5094762;28;20657;-64
2022/11/04 12:26:45;;;;;;;7.90;3.53;;;12.20;99.90;;;;;;5095811;28;20263;-65
2022/11/04 12:29:14;;;;;;;5.78;3.00;;;12.20;99.90;;;;;;5095710;28;20220;-64
2022/11/04 12:32:10;;;;;;;8.05;3.40;;;12.20;99.90;;;;;;5094544;28;20181;-65
2022/11/04 12:35:09;;;;;;;6.00;3.00;;;12.30;99.90;;;;;;5095566;28;20633;-64
2022/11/04 12:38:08;;;;;;;3.70;3.20;;;12.30;99.90;;;;;;5095961;28;20181;-64
2022/11/04 12:40:52;;;;;;;3.95;3.13;;;12.20;99.90;;;;;;5096162;28;20520;-64
2022/11/04 12:43:59;;;;;;;10.27;4.07;;;12.30;99.90;;;;;;5096011;28;20199;-65
2022/11/04 12:46:33;;;;;;;6.18;3.38;;;12.20;99.90;;;;;;5095092;28;20224;-64
2022/11/04 12:49:11;;;;;;;5.90;3.03;;;12.30;99.90;;;;;;5095576;28;20172;-64
2022/11/04 12:51:46;;;;;;;7.70;3.42;;;12.20;99.90;;;;;;5095349;28;20184;-64
2022/11/04 12:54:17;;;;;;;4.57;2.90;;;12.20;99.90;;;;;;5095723;28;20244;-64
2022/11/04 12:56:43;;;;;;;3.28;2.70;;;12.20;99.90;;;;;;5095230;28;20669;-64
2022/11/04 12:59:49;;;;;;;3.92;3.20;;;12.00;99.90;;;;;;5095092;28;20181;-64
2022/11/04 13:02:28;;;;;;;4.97;3.38;;;12.00;99.90;;;;;;5095689;28;20158;-64
2022/11/04 13:05:14;;;;;;;10.17;3.60;;;11.90;99.90;;;;;;5096317;28;20535;-64
2022/11/04 13:07:51;;;;;;;9.85;3.60;;;11.90;99.90;;;;;;5095778;28;20158;-64
2022/11/04 13:10:26;;;;;;;8.50;3.50;;;11.90;99.90;;;;;;5095644;28;20592;-64
2022/11/04 13:12:54;;;;;;;8.98;3.47;;;11.90;99.90;;;;;;5081859;28;20185;-64
2022/11/04 13:15:24;;;;;;;6.90;3.42;;;12.00;99.90;;;;;;5074796;28;20267;-65
2022/11/04 13:18:13;;;;;;;8.37;3.70;;;12.00;99.90;;;;;;5073465;28;20545;-65
2022/11/04 13:20:51;;;;;;;6.13;3.43;;;12.10;99.90;;;;;;5073419;28;20201;-64
2022/11/04 13:23:27;;;;;;;6.40;3.20;;;12.00;99.90;;;;;;5074558;28;20162;-64
2022/11/04 13:25:55;;;;;;;7.65;3.25;;;12.00;99.90;;;;;;5074753;28;20201;-64
2022/11/04 13:28:22;;;;;;;11.98;3.80;;;12.10;99.90;;;;;;5074418;28;20182;-64
2022/11/04 13:31:03;;;;;;;7.40;3.33;;;12.10;99.90;;;;;;5074696;28;20534;-64
2022/11/04 13:33:55;;;;;;;8.53;3.43;;;12.00;99.90;;;;;;5074551;28;20186;-64
2022/11/04 13:36:41;;;;;;;9.23;3.90;;;12.10;99.90;;;;;;5072921;28;20301;-70
2022/11/04 13:39:11;;;;;;;10.70;3.67;;;12.10;99.90;;;;;;5074784;28;20162;-65
2022/11/04 13:42:08;;;;;;;5.88;3.65;;;12.00;99.90;;;;;;5075920;28;20680;-64
2022/11/04 13:44:47;;;;;;;7.22;3.95;;;12.00;99.90;;;;;;5093080;28;20189;-64
2022/11/04 13:47:36;;;;;;;7.95;3.30;;;12.10;99.90;;;;;;5092653;28;20669;-64
2022/11/04 13:50:06;;;;;;;8.13;3.20;;;12.10;99.90;;;;;;5092712;28;20209;-64